createdAt,value
2017-05-07T00:01:51.647Z,23.53
2017-05-07T00:04:19.974Z,22.17
2017-05-07T00:06:48.545Z,24.78
2017-05-07T00:09:16.873Z,23.98
2017-05-07T00:17:32.198Z,22.25
2017-05-07T00:20:00.543Z,23.28
2017-05-07T00:22:28.883Z,22.78
2017-05-07T00:24:58.604Z,21.75
2017-05-07T00:27:26.949Z,22.38
2017-05-07T00:29:55.284Z,24.33
2017-05-07T00:32:23.817Z,22.73
2017-05-07T00:34:52.152Z,23.48
2017-05-07T00:37:20.500Z,24.15
2017-05-07T00:39:48.909Z,21.72
2017-05-07T00:42:17.238Z,23.03
2017-05-07T00:44:45.576Z,23.00
2017-05-07T00:47:14.063Z,23.88
2017-05-07T00:49:42.395Z,25.87
2017-05-07T00:52:11.476Z,22.82
2017-05-07T00:54:41.291Z,23.77
2017-05-07T00:57:09.627Z,24.62
2017-05-07T00:59:37.962Z,22.95
2017-05-07T01:02:07.224Z,23.23
2017-05-07T01:04:35.560Z,24.37
2017-05-07T01:07:03.889Z,25.35
2017-05-07T01:09:32.289Z,22.72
2017-05-07T01:12:00.601Z,25.62
2017-05-07T01:17:04.823Z,26.67
2017-05-07T01:19:33.561Z,25.05
2017-05-07T01:22:01.960Z,25.47
2017-05-07T01:24:31.177Z,24.22
2017-05-07T01:26:59.504Z,24.83
2017-05-07T01:29:27.848Z,25.57
2017-05-07T01:31:56.229Z,24.60
2017-05-07T01:34:24.567Z,26.45
2017-05-07T01:36:53.965Z,27.00
2017-05-07T01:39:23.472Z,25.10
2017-05-07T01:41:51.801Z,27.05
2017-05-07T01:44:20.132Z,25.43
2017-05-07T01:46:48.652Z,25.48
2017-05-07T01:49:17.022Z,26.58
2017-05-07T01:51:46.173Z,26.02
2017-05-07T01:54:14.710Z,28.65
2017-05-07T01:56:43.045Z,26.95
2017-05-07T01:59:12.124Z,29.95
2017-05-07T02:01:40.664Z,27.40
2017-05-07T02:04:09.004Z,28.68
2017-05-07T02:06:41.617Z,27.93
2017-05-07T02:09:09.947Z,25.45
2017-05-07T02:11:39.036Z,26.92
2017-05-07T02:14:07.536Z,28.05
2017-05-07T02:16:35.883Z,30.02
2017-05-07T02:19:04.319Z,28.62
2017-05-07T02:21:32.792Z,27.62
2017-05-07T02:24:01.122Z,26.13
2017-05-07T02:26:29.454Z,27.60
2017-05-07T02:28:57.916Z,29.78
2017-05-07T02:31:26.262Z,27.95
2017-05-07T02:33:55.342Z,28.17
2017-05-07T02:36:23.850Z,26.05
2017-05-07T02:38:52.600Z,26.72
2017-05-07T02:41:20.936Z,26.50
2017-05-07T02:43:49.429Z,26.95
2017-05-07T02:46:17.802Z,30.25
2017-05-07T02:48:46.130Z,30.93
2017-05-07T02:51:14.657Z,27.00
2017-05-07T02:53:43.045Z,30.47
2017-05-07T02:56:11.369Z,28.27
2017-05-07T02:58:39.833Z,28.53
2017-05-07T03:01:08.626Z,33.75
2017-05-07T03:03:36.961Z,33.87
2017-05-07T03:06:05.589Z,30.45
2017-05-07T03:08:34.049Z,33.40
2017-05-07T03:11:02.390Z,30.62
2017-05-07T03:13:30.905Z,32.17
2017-05-07T03:15:59.236Z,32.50
2017-05-07T03:18:28.323Z,31.63
2017-05-07T03:20:57.441Z,31.37
2017-05-07T03:23:25.782Z,33.12
2017-05-07T03:25:54.134Z,32.37
2017-05-07T03:28:23.632Z,29.97
2017-05-07T03:30:51.973Z,32.10
2017-05-07T03:33:22.023Z,30.57
2017-05-07T03:35:50.367Z,30.75
2017-05-07T03:38:19.441Z,27.15
2017-05-07T03:40:48.151Z,30.97
2017-05-07T03:43:16.592Z,31.47
2017-05-07T03:45:44.916Z,32.17
2017-05-07T03:48:13.385Z,32.62
2017-05-07T03:50:41.721Z,31.62
2017-05-07T03:53:10.068Z,30.97
2017-05-07T03:55:38.549Z,29.87
2017-05-07T03:58:06.896Z,33.25
2017-05-07T04:00:35.236Z,31.67
2017-05-07T04:03:03.614Z,32.27
2017-05-07T04:05:31.949Z,33.20
2017-05-07T04:08:00.296Z,32.83
2017-05-07T04:10:29.141Z,35.18
2017-05-07T04:12:57.479Z,33.52
2017-05-07T04:15:25.834Z,33.42
2017-05-07T04:17:54.445Z,33.87
2017-05-07T04:20:22.803Z,32.43
2017-05-07T04:22:51.894Z,33.05
2017-05-07T04:25:21.030Z,32.13
2017-05-07T04:27:49.386Z,32.25
2017-05-07T04:30:17.754Z,33.45
2017-05-07T04:32:47.195Z,33.73
2017-05-07T04:35:15.528Z,34.08
2017-05-07T04:37:44.626Z,34.53
2017-05-07T04:40:13.760Z,33.62
2017-05-07T04:42:42.142Z,31.77
2017-05-07T04:45:10.528Z,31.67
2017-05-07T04:47:38.924Z,35.77
2017-05-07T04:50:07.259Z,33.12
2017-05-07T04:52:35.595Z,31.70
2017-05-07T04:55:04.078Z,32.55
2017-05-07T04:57:32.417Z,33.72
2017-05-07T05:00:00.742Z,32.37
2017-05-07T05:02:29.887Z,32.97
2017-05-07T05:04:58.209Z,34.37
2017-05-07T05:07:27.276Z,33.95
2017-05-07T05:09:55.790Z,34.35
2017-05-07T05:12:24.145Z,34.57
2017-05-07T05:14:52.474Z,34.87
2017-05-07T05:17:20.990Z,34.77
2017-05-07T05:19:49.355Z,32.68
2017-05-07T05:22:47.514Z,34.00
2017-05-07T05:25:33.533Z,35.03
2017-05-07T05:28:04.705Z,29.02
2017-05-07T05:30:42.832Z,29.78
2017-05-07T05:33:11.982Z,28.00
2017-05-07T05:35:40.566Z,29.30
2017-05-07T05:38:08.918Z,28.25
2017-05-07T05:40:37.456Z,29.18
2017-05-07T05:43:06.561Z,27.38
2017-05-07T05:45:35.664Z,26.22
2017-05-07T05:48:04.791Z,28.10
2017-05-07T05:50:33.141Z,26.77
2017-05-07T05:53:01.475Z,27.73
2017-05-07T05:55:30.048Z,24.23
2017-05-07T05:57:58.390Z,25.60
2017-05-07T06:00:26.724Z,23.40
2017-05-07T06:02:55.243Z,24.50
2017-05-07T06:05:23.607Z,25.90
2017-05-07T06:07:52.684Z,25.45
2017-05-07T06:10:21.217Z,23.75
2017-05-07T06:12:49.599Z,22.70
2017-05-07T06:15:17.929Z,24.73
2017-05-07T06:17:47.247Z,23.45
2017-05-07T06:20:16.372Z,23.50
2017-05-07T06:22:44.718Z,19.30
2017-05-07T06:25:13.513Z,22.50
2017-05-07T06:27:41.865Z,22.00
2017-05-07T06:30:10.207Z,22.20
2017-05-07T06:32:38.694Z,19.70
2017-05-07T06:35:07.050Z,18.93
2017-05-07T06:37:35.401Z,18.45
2017-05-07T06:40:03.918Z,18.18
2017-05-07T06:42:32.273Z,17.25
2017-05-07T06:45:00.620Z,15.02
2017-05-07T06:47:29.767Z,17.35
2017-05-07T06:49:58.104Z,15.67
2017-05-07T06:52:26.457Z,16.07
2017-05-07T06:54:55.136Z,16.28
2017-05-07T06:57:23.493Z,15.50
2017-05-07T06:59:51.915Z,15.80
2017-05-07T07:02:21.161Z,15.93
2017-05-07T07:04:49.505Z,14.98
2017-05-07T07:07:18.600Z,13.52
2017-05-07T07:09:47.166Z,13.78
2017-05-07T07:12:15.543Z,14.03
2017-05-07T07:14:44.655Z,14.58
2017-05-07T07:17:13.144Z,15.42
2017-05-07T07:19:41.530Z,13.07
2017-05-07T07:22:09.910Z,15.33
2017-05-07T07:24:38.314Z,12.97
2017-05-07T07:27:06.678Z,10.67
2017-05-07T07:29:35.069Z,11.85
2017-05-07T07:32:03.612Z,11.97
2017-05-07T07:34:32.708Z,12.32
2017-05-07T07:37:02.729Z,12.40
2017-05-07T07:39:31.089Z,12.22
2017-05-07T07:41:59.475Z,11.37
2017-05-07T07:44:28.783Z,9.33
2017-05-07T07:46:57.880Z,9.02
2017-05-07T07:49:26.216Z,10.40
2017-05-07T07:51:54.600Z,10.88
2017-05-07T07:54:22.965Z,10.78
2017-05-07T07:56:51.301Z,11.75
2017-05-07T07:59:20.144Z,13.83
2017-05-07T08:01:48.484Z,13.07
2017-05-07T08:04:16.821Z,13.33
2017-05-07T08:06:46.104Z,12.53
2017-05-07T08:09:14.467Z,11.08
2017-05-07T08:11:42.797Z,10.48
2017-05-07T08:14:11.184Z,11.30
2017-05-07T08:16:39.512Z,10.25
2017-05-07T08:19:07.850Z,10.47
2017-05-07T08:21:36.508Z,10.82
2017-05-07T08:24:04.841Z,11.90
2017-05-07T08:26:33.196Z,11.17
2017-05-07T08:29:01.624Z,10.88
2017-05-07T08:31:30.726Z,10.67
2017-05-07T08:33:59.800Z,11.05
2017-05-07T08:36:28.417Z,11.02
2017-05-07T08:38:56.766Z,10.15
2017-05-07T08:41:25.100Z,10.15
2017-05-07T08:43:54.309Z,10.48
2017-05-07T08:46:22.640Z,9.62
2017-05-07T08:48:51.012Z,10.38
2017-05-07T08:51:19.532Z,10.98
2017-05-07T08:53:47.872Z,10.15
2017-05-07T08:56:16.216Z,8.67
2017-05-07T08:58:44.620Z,10.03
2017-05-07T09:01:13.686Z,8.85
2017-05-07T09:03:42.032Z,10.30
2017-05-07T09:06:10.400Z,11.03
2017-05-07T09:08:38.748Z,10.13
2017-05-07T09:11:07.853Z,10.58
2017-05-07T09:13:36.926Z,10.23
2017-05-07T09:16:26.968Z,10.02
2017-05-07T09:18:58.698Z,10.00
2017-05-07T09:21:27.090Z,9.85
2017-05-07T09:23:55.444Z,11.08
2017-05-07T09:26:23.810Z,10.00
2017-05-07T09:28:52.146Z,10.18
2017-05-07T09:31:20.510Z,9.77
2017-05-07T09:33:48.912Z,10.68
2017-05-07T09:36:17.419Z,11.38
2017-05-07T09:38:45.770Z,9.77
2017-05-07T09:41:14.353Z,10.58
2017-05-07T09:43:42.698Z,9.10
2017-05-07T09:46:11.102Z,10.30
2017-05-07T09:48:39.462Z,10.58
2017-05-07T09:51:07.788Z,10.58
2017-05-07T09:53:36.795Z,10.22
2017-05-07T09:56:05.876Z,9.65
2017-05-07T09:58:34.256Z,9.62
2017-05-07T10:01:02.603Z,8.38
2017-05-07T10:03:30.961Z,8.27
2017-05-07T10:05:59.353Z,8.50
2017-05-07T10:08:27.714Z,9.37
2017-05-07T10:10:56.116Z,9.83
2017-05-07T10:13:24.481Z,8.98
2017-05-07T10:15:53.270Z,8.58
2017-05-07T10:18:21.629Z,8.18
2017-05-07T10:20:49.981Z,8.92
2017-05-07T10:23:18.371Z,11.17
2017-05-07T10:25:46.714Z,8.92
2017-05-07T10:28:15.077Z,8.68
2017-05-07T10:30:44.412Z,9.82
2017-05-07T10:33:12.766Z,9.78
2017-05-07T10:35:41.094Z,9.38
2017-05-07T10:38:09.501Z,8.55
2017-05-07T10:40:37.851Z,7.40
2017-05-07T10:43:06.201Z,8.67
2017-05-07T10:45:34.568Z,8.60
2017-05-07T10:48:02.944Z,9.18
2017-05-07T10:50:31.285Z,9.37
2017-05-07T10:52:59.721Z,9.05
2017-05-07T10:55:28.840Z,8.40
2017-05-07T10:57:57.172Z,7.60
2017-05-07T11:00:25.534Z,8.22
2017-05-07T11:02:53.869Z,8.82
2017-05-07T11:05:22.220Z,7.73
2017-05-07T11:07:50.545Z,7.63
2017-05-07T11:10:18.901Z,7.02
2017-05-07T11:12:47.240Z,9.20
2017-05-07T11:15:15.604Z,10.63
2017-05-07T11:17:43.955Z,8.63
2017-05-07T11:20:12.300Z,8.15
2017-05-07T11:22:40.683Z,6.93
2017-05-07T11:25:09.038Z,7.42
2017-05-07T11:27:37.392Z,8.12
2017-05-07T11:30:05.740Z,8.22
2017-05-07T11:32:34.083Z,7.15
2017-05-07T11:35:02.476Z,7.97
2017-05-07T11:37:30.867Z,7.38
2017-05-07T11:39:59.233Z,8.10
2017-05-07T11:42:27.593Z,6.75
2017-05-07T11:44:56.735Z,7.60
2017-05-07T11:47:25.111Z,8.00
2017-05-07T11:49:53.542Z,8.02
2017-05-07T11:52:22.676Z,8.08
2017-05-07T11:54:51.025Z,8.23
2017-05-07T11:57:20.117Z,7.70
2017-05-07T11:59:49.216Z,8.12
2017-05-07T12:02:18.335Z,6.92
2017-05-07T12:04:46.660Z,7.13
2017-05-07T12:07:15.038Z,6.97
2017-05-07T12:09:43.380Z,7.10
2017-05-07T12:12:11.712Z,7.17
2017-05-07T12:14:40.852Z,6.77
2017-05-07T12:17:09.191Z,6.07
2017-05-07T12:19:38.369Z,7.45
2017-05-07T12:22:06.720Z,7.12
2017-05-07T12:24:35.079Z,7.85
2017-05-07T12:27:03.411Z,7.17
2017-05-07T12:29:32.505Z,7.27
2017-05-07T12:32:00.844Z,6.43
2017-05-07T12:34:29.232Z,7.08
2017-05-07T12:36:57.562Z,6.17
2017-05-07T12:39:26.658Z,6.27
2017-05-07T12:41:54.982Z,7.73
2017-05-07T12:44:23.436Z,6.68
2017-05-07T12:46:51.773Z,7.08
2017-05-07T12:49:20.841Z,8.17
2017-05-07T12:51:49.332Z,5.73
2017-05-07T12:54:17.667Z,6.77
2017-05-07T12:56:46.035Z,7.37
2017-05-07T12:59:14.380Z,7.28
2017-05-07T13:01:43.475Z,6.62
2017-05-07T13:04:12.547Z,8.58
2017-05-07T13:06:40.889Z,7.85
2017-05-07T13:09:09.223Z,8.67
2017-05-07T13:11:38.312Z,7.88
2017-05-07T13:14:06.641Z,7.52
2017-05-07T13:16:34.988Z,8.03
2017-05-07T13:19:03.342Z,6.02
2017-05-07T13:21:31.744Z,7.68
2017-05-07T13:24:00.115Z,7.42
2017-05-07T13:26:29.192Z,7.00
2017-05-07T13:28:57.560Z,7.10
2017-05-07T13:31:25.907Z,7.15
2017-05-07T13:33:54.285Z,5.85
2017-05-07T13:36:22.701Z,6.65
2017-05-07T13:38:51.052Z,6.82
2017-05-07T13:41:19.429Z,7.28
2017-05-07T13:43:47.799Z,6.30
2017-05-07T13:46:16.140Z,6.85
2017-05-07T13:48:45.240Z,7.92
2017-05-07T13:51:14.319Z,7.33
2017-05-07T13:53:43.413Z,7.70
2017-05-07T13:56:12.493Z,9.83
2017-05-07T13:58:40.920Z,7.77
2017-05-07T14:01:09.272Z,7.93
2017-05-07T14:03:38.357Z,8.68
2017-05-07T14:06:07.452Z,8.67
2017-05-07T14:08:35.781Z,7.65
2017-05-07T14:11:04.142Z,9.30
2017-05-07T14:13:32.487Z,9.52
2017-05-07T14:16:01.584Z,9.60
2017-05-07T14:18:30.654Z,8.62
2017-05-07T14:20:59.013Z,9.65
2017-05-07T14:23:27.400Z,12.53
2017-05-07T14:25:55.746Z,9.23
2017-05-07T14:28:24.088Z,12.23
2017-05-07T14:30:53.189Z,11.10
2017-05-07T14:33:22.273Z,11.40
2017-05-07T14:35:50.614Z,12.38
2017-05-07T14:38:18.987Z,10.60
2017-05-07T14:40:47.323Z,12.60
2017-05-07T14:43:15.683Z,11.38
2017-05-07T14:45:44.036Z,10.23
2017-05-07T14:48:12.404Z,12.17
2017-05-07T14:50:40.792Z,11.68
2017-05-07T14:53:09.153Z,11.67
2017-05-07T14:55:37.520Z,11.47
2017-05-07T14:58:05.889Z,12.68
2017-05-07T15:00:34.258Z,10.48
2017-05-07T15:03:06.996Z,12.48
2017-05-07T15:05:35.675Z,10.72
2017-05-07T15:08:05.116Z,11.53
2017-05-07T15:10:33.547Z,12.10
2017-05-07T15:13:01.884Z,11.82
2017-05-07T15:15:30.261Z,11.48
2017-05-07T15:17:58.614Z,10.50
2017-05-07T15:20:27.729Z,10.67
2017-05-07T15:22:56.851Z,10.87
2017-05-07T15:25:25.207Z,11.07
2017-05-07T15:27:53.532Z,9.43
2017-05-07T15:30:22.222Z,11.05
2017-05-07T15:32:50.894Z,9.45
2017-05-07T15:35:19.249Z,10.43
2017-05-07T15:37:47.581Z,10.45
2017-05-07T15:40:15.928Z,10.10
2017-05-07T15:42:44.270Z,11.07
2017-05-07T15:45:12.617Z,9.25
2017-05-07T15:47:40.963Z,9.98
2017-05-07T15:50:09.341Z,9.55
2017-05-07T15:52:37.692Z,10.72
2017-05-07T15:55:06.021Z,9.00
2017-05-07T15:57:34.385Z,7.98
2017-05-07T16:00:02.713Z,8.62
2017-05-07T16:02:31.100Z,8.23
2017-05-07T16:04:59.472Z,7.43
2017-05-07T16:07:27.833Z,6.58
2017-05-07T16:09:56.928Z,8.00
2017-05-07T16:12:26.017Z,8.48
2017-05-07T16:14:55.089Z,7.43
2017-05-07T16:27:01.938Z,7.68
2017-05-07T16:29:31.084Z,6.92
2017-05-07T16:32:14.308Z,7.62
2017-05-07T16:34:42.676Z,6.75
2017-05-07T16:37:11.017Z,8.38
2017-05-07T16:39:39.620Z,8.68
2017-05-07T16:42:08.938Z,9.28
2017-05-07T16:44:37.309Z,7.33
2017-05-07T16:47:05.661Z,7.10
2017-05-07T16:49:34.072Z,8.83
2017-05-07T16:52:02.434Z,8.56
2017-05-07T16:54:30.871Z,7.35
2017-05-07T16:56:59.290Z,6.80
2017-05-07T16:59:27.724Z,6.42
2017-05-07T17:01:56.068Z,6.92
2017-05-07T17:04:24.941Z,6.25
2017-05-07T17:07:10.748Z,6.32
2017-05-07T17:09:39.077Z,7.28
2017-05-07T17:12:07.532Z,7.07
2017-05-07T17:14:35.934Z,7.15
2017-05-07T17:17:04.310Z,7.20
2017-05-07T17:19:32.673Z,7.65
2017-05-07T17:22:01.085Z,7.63
2017-05-07T17:24:29.417Z,9.48
2017-05-07T17:26:57.782Z,8.63
2017-05-07T17:29:27.096Z,8.13
2017-05-07T17:31:55.546Z,9.37
2017-05-07T17:34:23.938Z,8.13
2017-05-07T17:36:52.315Z,9.67
2017-05-07T17:39:20.853Z,8.63
2017-05-07T17:41:49.238Z,8.25
2017-05-07T17:44:18.424Z,7.33
2017-05-07T17:46:47.575Z,9.37
2017-05-07T17:49:15.908Z,8.85
2017-05-07T17:51:44.266Z,9.25
2017-05-07T17:54:12.834Z,9.53
2017-05-07T17:56:41.326Z,9.88
2017-05-07T17:59:09.693Z,8.95
2017-05-07T18:01:38.276Z,11.13
2017-05-07T18:04:06.660Z,11.33
2017-05-07T18:06:35.443Z,13.38
2017-05-07T18:09:03.851Z,12.63
2017-05-07T18:11:32.725Z,12.17
2017-05-07T18:14:01.103Z,12.43
2017-05-07T18:16:29.499Z,12.50
2017-05-07T18:18:57.949Z,13.48
2017-05-07T18:21:26.352Z,14.32
2017-05-07T18:23:54.719Z,14.02
2017-05-07T18:26:23.615Z,14.85
2017-05-07T18:28:52.036Z,14.03
2017-05-07T18:31:21.156Z,14.17
2017-05-07T18:33:49.533Z,15.08
2017-05-07T18:36:17.882Z,14.55
2017-05-07T18:38:46.257Z,16.02
2017-05-07T18:41:15.661Z,15.37
2017-05-07T18:43:44.045Z,14.58
2017-05-07T18:46:12.443Z,14.68
2017-05-07T18:48:40.842Z,15.05
2017-05-07T18:51:09.828Z,14.10
2017-05-07T18:53:38.167Z,13.18
2017-05-07T18:56:07.304Z,12.20
2017-05-07T18:58:35.933Z,12.82
2017-05-07T19:01:05.699Z,12.33
2017-05-07T19:03:34.033Z,12.05
2017-05-07T19:06:03.149Z,10.78
2017-05-07T19:08:32.274Z,11.58
2017-05-07T19:11:00.679Z,11.67
2017-05-07T19:13:29.052Z,11.87
2017-05-07T19:15:57.412Z,12.38
2017-05-07T19:18:25.761Z,13.78
2017-05-07T19:20:55.067Z,12.40
2017-05-07T19:23:23.428Z,15.38
2017-05-07T19:25:51.786Z,16.42
2017-05-07T19:28:20.901Z,15.05
2017-05-07T19:30:49.239Z,15.78
2017-05-07T19:33:17.592Z,16.53
2017-05-07T19:35:46.138Z,17.13
2017-05-07T19:38:14.519Z,16.57
2017-05-07T19:40:42.852Z,15.80
2017-05-07T19:43:11.203Z,16.98
2017-05-07T19:45:39.553Z,17.75
2017-05-07T19:48:08.872Z,16.98
2017-05-07T19:50:37.220Z,18.65
2017-05-07T19:53:05.581Z,18.00
2017-05-07T19:55:33.920Z,17.65
2017-05-07T19:58:02.293Z,17.88
2017-05-07T20:00:30.644Z,20.27
2017-05-07T20:02:59.013Z,17.47
2017-05-07T20:05:27.362Z,18.37
2017-05-07T20:07:55.995Z,20.97
2017-05-07T20:10:24.345Z,20.22
2017-05-07T20:12:53.504Z,19.15
2017-05-07T20:15:21.866Z,19.13
2017-05-07T20:17:50.231Z,18.73
2017-05-07T20:20:18.626Z,21.30
2017-05-07T20:22:47.252Z,21.42
2017-05-07T20:25:15.625Z,20.68
2017-05-07T20:27:44.730Z,19.88
2017-05-07T20:30:13.823Z,21.42
2017-05-07T20:32:42.907Z,21.83
2017-05-07T20:35:12.017Z,20.02
2017-05-07T20:37:41.096Z,20.93
2017-05-07T20:40:10.199Z,20.40
2017-05-07T20:42:39.284Z,20.93
2017-05-07T20:45:08.414Z,20.33
2017-05-07T20:47:36.751Z,19.75
2017-05-07T20:50:05.686Z,20.58
2017-05-07T20:52:34.028Z,20.93
2017-05-07T20:55:04.557Z,21.28
2017-05-07T20:57:33.000Z,20.63
2017-05-07T21:00:02.684Z,21.90
2017-05-07T21:02:31.216Z,21.85
2017-05-07T21:05:00.537Z,19.55
2017-05-07T21:07:29.641Z,21.28
2017-05-07T21:09:58.727Z,20.45
2017-05-07T21:12:28.146Z,18.75
2017-05-07T21:14:56.484Z,19.93
2017-05-07T21:17:25.752Z,17.03
2017-05-07T21:19:54.449Z,20.67
2017-05-07T21:22:22.820Z,17.77
2017-05-07T21:24:51.159Z,20.72
2017-05-07T21:27:19.694Z,22.85
2017-05-07T21:29:48.045Z,22.55
2017-05-07T21:32:16.380Z,20.10
2017-05-07T21:34:45.742Z,21.87
2017-05-07T21:37:14.091Z,22.37
2017-05-07T21:39:42.428Z,23.00
2017-05-07T21:42:10.834Z,20.62
2017-05-07T21:44:39.178Z,19.88
2017-05-07T21:47:07.557Z,20.62
2017-05-07T21:49:35.942Z,21.42
2017-05-07T21:52:04.286Z,20.40
2017-05-07T21:54:32.619Z,23.70
2017-05-07T21:57:02.139Z,23.78
2017-05-07T21:59:30.487Z,23.35
2017-05-07T22:01:58.829Z,23.00
2017-05-07T22:04:27.277Z,22.23
2017-05-07T22:06:55.620Z,23.83
2017-05-07T22:09:23.955Z,22.53
2017-05-07T22:11:52.339Z,22.77
2017-05-07T22:14:20.672Z,18.97
2017-05-07T22:16:49.104Z,17.75
2017-05-07T22:19:17.629Z,15.93
2017-05-07T22:21:46.706Z,15.93
2017-05-07T22:24:15.041Z,14.62
2017-05-07T22:26:43.419Z,14.10
2017-05-07T22:29:11.741Z,14.67
2017-05-07T22:31:40.064Z,14.28
2017-05-07T22:34:08.525Z,18.05
2017-05-07T22:36:36.863Z,18.07
2017-05-07T22:39:05.199Z,19.00
2017-05-07T22:41:33.564Z,18.52
2017-05-07T22:44:01.900Z,16.78
2017-05-07T22:46:32.153Z,17.70
2017-05-07T22:49:00.592Z,15.42
2017-05-07T22:51:28.921Z,12.23
2017-05-07T22:53:57.263Z,11.67
2017-05-07T22:56:26.605Z,10.78
2017-05-07T22:58:54.938Z,10.18
2017-05-07T23:01:23.264Z,12.55
2017-05-07T23:03:52.027Z,12.47
2017-05-07T23:06:20.344Z,14.90
2017-05-07T23:08:48.671Z,13.97
2017-05-07T23:11:18.083Z,14.32
2017-05-07T23:13:46.431Z,13.97
2017-05-07T23:16:14.773Z,14.75
2017-05-07T23:18:43.167Z,17.15
2017-05-07T23:21:11.493Z,15.85
2017-05-07T23:23:40.556Z,14.62
2017-05-07T23:26:09.172Z,16.30
2017-05-07T23:28:37.568Z,14.00
2017-05-07T23:31:05.915Z,13.53
2017-05-07T23:33:35.325Z,14.52
2017-05-07T23:36:04.405Z,13.55
2017-05-07T23:38:33.483Z,12.42
2017-05-07T23:41:01.863Z,11.58
2017-05-07T23:43:30.202Z,10.25
2017-05-07T23:45:58.528Z,11.10
2017-05-07T23:48:26.901Z,11.08
2017-05-07T23:50:55.229Z,10.40
2017-05-07T23:53:23.560Z,10.17
2017-05-07T23:55:52.167Z,10.98
2017-05-07T23:58:20.515Z,9.60
